createdAt,value
2018-08-09T00:00:27.577Z,24.9
2018-08-09T00:01:28.008Z,24.88
2018-08-09T00:02:27.430Z,24.88
2018-08-09T00:03:27.642Z,24.9
2018-08-09T00:04:27.415Z,24.9
2018-08-09T00:05:27.749Z,24.87
2018-08-09T00:06:27.615Z,24.88
2018-08-09T00:07:27.577Z,24.88
2018-08-09T00:08:27.494Z,24.87
2018-08-09T00:09:27.628Z,24.9
2018-08-09T00:10:27.639Z,24.86
2018-08-09T00:11:27.547Z,24.87
2018-08-09T00:12:27.528Z,24.88
2018-08-09T00:13:27.423Z,24.88
2018-08-09T00:14:27.732Z,24.9
2018-08-09T00:15:27.834Z,24.88
2018-08-09T00:16:27.545Z,24.87
2018-08-09T00:17:27.588Z,24.9
2018-08-09T00:18:27.583Z,24.88
2018-08-09T00:19:27.566Z,24.87
2018-08-09T00:20:27.529Z,24.88
2018-08-09T00:21:27.547Z,24.88
2018-08-09T00:22:27.389Z,24.88
2018-08-09T00:23:27.630Z,24.88
2018-08-09T00:24:27.905Z,24.87
2018-08-09T00:25:27.484Z,24.9
2018-08-09T00:26:27.634Z,24.87
2018-08-09T00:27:27.633Z,24.84
2018-08-09T00:28:27.535Z,24.86
2018-08-09T00:29:27.596Z,24.88
2018-08-09T00:30:27.661Z,24.88
2018-08-09T00:31:27.433Z,24.87
2018-08-09T00:32:27.646Z,24.87
2018-08-09T00:33:27.817Z,24.87
2018-08-09T00:34:27.641Z,24.86
2018-08-09T00:35:27.650Z,24.87
2018-08-09T00:36:27.474Z,24.88
2018-08-09T00:37:27.721Z,24.87
2018-08-09T00:38:27.655Z,24.9
2018-08-09T00:39:27.717Z,24.88
2018-08-09T00:40:27.486Z,24.88
2018-08-09T00:41:27.569Z,24.87
2018-08-09T00:42:27.587Z,24.86
2018-08-09T00:43:27.497Z,24.88
2018-08-09T00:44:27.794Z,24.86
2018-08-09T00:45:27.505Z,24.86
2018-08-09T00:46:27.483Z,24.87
2018-08-09T00:47:27.722Z,24.86
2018-08-09T00:48:27.559Z,24.86
2018-08-09T00:49:27.583Z,24.87
2018-08-09T00:50:27.456Z,24.88
2018-08-09T00:51:27.524Z,24.88
2018-08-09T00:52:27.482Z,24.84
2018-08-09T00:53:27.602Z,24.88
2018-08-09T00:54:27.482Z,24.87
2018-08-09T00:55:27.607Z,24.87
2018-08-09T00:56:27.425Z,24.87
2018-08-09T00:57:27.643Z,24.86
2018-08-09T00:58:27.462Z,24.86
2018-08-09T00:59:27.513Z,24.87
2018-08-09T01:00:27.540Z,24.86
2018-08-09T01:01:27.625Z,24.87
2018-08-09T01:02:27.674Z,24.87
2018-08-09T01:03:27.575Z,24.87
2018-08-09T01:04:27.608Z,24.87
2018-08-09T01:05:27.487Z,24.86
2018-08-09T01:06:27.626Z,24.84
2018-08-09T01:07:27.371Z,24.87
2018-08-09T01:08:27.575Z,24.87
2018-08-09T01:09:27.427Z,24.86
2018-08-09T01:10:27.571Z,24.86
2018-08-09T01:11:27.514Z,24.86
2018-08-09T01:12:27.558Z,24.83
2018-08-09T01:13:27.461Z,24.86
2018-08-09T01:14:27.632Z,24.86
2018-08-09T01:15:27.707Z,24.87
2018-08-09T01:16:27.388Z,24.86
2018-08-09T01:17:27.482Z,24.84
2018-08-09T01:18:27.478Z,24.86
2018-08-09T01:19:27.914Z,24.87
2018-08-09T01:20:27.549Z,24.86
2018-08-09T01:21:27.680Z,24.86
2018-08-09T01:22:27.610Z,24.88
2018-08-09T01:23:27.504Z,24.84
2018-08-09T01:24:27.446Z,24.84
2018-08-09T01:25:27.480Z,24.83
2018-08-09T01:26:27.404Z,24.87
2018-08-09T01:27:27.327Z,24.84
2018-08-09T01:28:27.422Z,24.84
2018-08-09T01:29:27.480Z,24.86
2018-08-09T01:30:27.731Z,24.88
2018-08-09T01:31:27.646Z,24.86
2018-08-09T01:32:27.513Z,24.84
2018-08-09T01:33:27.645Z,24.86
2018-08-09T01:34:27.851Z,24.84
2018-08-09T01:35:27.537Z,24.87
2018-08-09T01:36:27.337Z,24.87
2018-08-09T01:37:27.587Z,24.81
2018-08-09T01:38:27.540Z,24.84
2018-08-09T01:39:27.775Z,24.83
2018-08-09T01:40:27.504Z,24.87
2018-08-09T01:41:27.530Z,24.86
2018-08-09T01:42:27.550Z,24.86
2018-08-09T01:43:27.696Z,24.83
2018-08-09T01:44:27.802Z,24.87
2018-08-09T01:45:27.501Z,24.86
2018-08-09T01:46:27.476Z,24.86
2018-08-09T01:47:27.459Z,24.87
2018-08-09T01:48:27.599Z,24.87
2018-08-09T01:49:27.724Z,24.86
2018-08-09T01:50:27.510Z,24.83
2018-08-09T01:51:27.532Z,24.84
2018-08-09T01:52:27.643Z,24.86
2018-08-09T01:53:27.501Z,24.84
2018-08-09T01:54:27.636Z,24.87
2018-08-09T01:55:27.487Z,24.84
2018-08-09T01:56:27.476Z,24.84
2018-08-09T01:57:27.475Z,24.84
2018-08-09T01:58:27.700Z,24.83
2018-08-09T01:59:27.496Z,24.84
2018-08-09T02:00:27.391Z,24.84
2018-08-09T02:01:27.485Z,24.83
2018-08-09T02:02:27.416Z,24.84
2018-08-09T02:03:27.517Z,24.84
2018-08-09T02:04:27.887Z,24.87
2018-08-09T02:05:27.409Z,24.84
2018-08-09T02:06:27.799Z,24.84
2018-08-09T02:07:27.388Z,24.84
2018-08-09T02:08:27.554Z,24.84
2018-08-09T02:09:27.608Z,24.86
2018-08-09T02:10:27.397Z,24.83
2018-08-09T02:11:27.467Z,24.84
2018-08-09T02:12:27.564Z,24.83
2018-08-09T02:13:27.528Z,24.8
2018-08-09T02:14:27.443Z,24.84
2018-08-09T02:15:27.557Z,24.84
2018-08-09T02:16:27.405Z,24.83
2018-08-09T02:17:27.640Z,24.84
2018-08-09T02:18:27.427Z,24.87
2018-08-09T02:19:27.753Z,24.81
2018-08-09T02:20:27.486Z,24.81
2018-08-09T02:21:27.403Z,24.83
2018-08-09T02:22:27.599Z,24.86
2018-08-09T02:23:27.534Z,24.87
2018-08-09T02:24:27.588Z,24.83
2018-08-09T02:25:27.403Z,24.83
2018-08-09T02:26:27.787Z,24.83
2018-08-09T02:27:27.521Z,24.84
2018-08-09T02:28:27.569Z,24.84
2018-08-09T02:29:27.476Z,24.83
2018-08-09T02:30:27.678Z,24.83
2018-08-09T02:31:27.528Z,24.84
2018-08-09T02:32:27.495Z,24.83
2018-08-09T02:33:27.552Z,24.83
2018-08-09T02:34:27.479Z,24.84
2018-08-09T02:35:27.436Z,24.84
2018-08-09T02:36:27.609Z,24.83
2018-08-09T02:37:27.467Z,24.81
2018-08-09T02:38:27.596Z,24.84
2018-08-09T02:39:27.466Z,24.81
2018-08-09T02:40:27.640Z,24.83
2018-08-09T02:41:27.599Z,24.83
2018-08-09T02:42:27.447Z,24.83
2018-08-09T02:43:27.489Z,24.81
2018-08-09T02:44:27.459Z,24.8
2018-08-09T02:45:27.512Z,24.81
2018-08-09T02:46:27.626Z,24.83
2018-08-09T02:47:27.524Z,24.83
2018-08-09T02:48:27.676Z,24.81
2018-08-09T02:49:27.581Z,24.83
2018-08-09T02:50:27.600Z,24.83
2018-08-09T02:51:27.769Z,24.81
2018-08-09T02:52:27.317Z,24.8
2018-08-09T02:53:27.504Z,24.81
2018-08-09T02:54:27.547Z,24.81
2018-08-09T02:55:27.493Z,24.81
2018-08-09T02:56:27.485Z,24.8
2018-08-09T02:57:27.543Z,24.84
2018-08-09T02:58:27.622Z,24.81
2018-08-09T02:59:27.633Z,24.81
2018-08-09T03:00:27.757Z,24.8
2018-08-09T03:01:27.739Z,24.8
2018-08-09T03:02:27.858Z,24.81
2018-08-09T03:03:27.485Z,24.83
2018-08-09T03:04:27.417Z,24.84
2018-08-09T03:05:27.447Z,24.83
2018-08-09T03:06:27.542Z,24.81
2018-08-09T03:07:27.459Z,24.81
2018-08-09T03:08:27.456Z,24.81
2018-08-09T03:09:27.613Z,24.83
2018-08-09T03:10:27.407Z,24.81
2018-08-09T03:11:27.604Z,24.78
2018-08-09T03:12:27.661Z,24.81
2018-08-09T03:13:27.674Z,24.81
2018-08-09T03:14:27.813Z,24.81
2018-08-09T03:15:27.795Z,24.81
2018-08-09T03:16:27.669Z,24.81
2018-08-09T03:17:27.546Z,24.83
2018-08-09T03:18:27.537Z,24.81
2018-08-09T03:19:27.489Z,24.81
2018-08-09T03:20:27.416Z,24.8
2018-08-09T03:21:27.666Z,24.8
2018-08-09T03:22:27.574Z,24.81
2018-08-09T03:23:27.497Z,24.83
2018-08-09T03:24:28.458Z,24.8
2018-08-09T03:25:27.979Z,24.78
2018-08-09T03:26:27.856Z,24.83
2018-08-09T03:27:27.508Z,24.8
2018-08-09T03:28:27.302Z,24.8
2018-08-09T03:29:27.538Z,24.81
2018-08-09T03:30:27.880Z,24.78
2018-08-09T03:31:27.381Z,24.81
2018-08-09T03:32:27.966Z,24.8
2018-08-09T03:33:27.587Z,24.83
2018-08-09T03:34:27.505Z,24.77
2018-08-09T03:35:27.846Z,24.78
2018-08-09T03:36:27.402Z,24.8
2018-08-09T03:37:27.473Z,24.81
2018-08-09T03:38:27.400Z,24.8
2018-08-09T03:39:27.455Z,24.8
2018-08-09T03:40:27.421Z,24.8
2018-08-09T03:41:27.571Z,24.8
2018-08-09T03:42:27.586Z,24.78
2018-08-09T03:43:27.622Z,24.81
2018-08-09T03:44:27.497Z,24.83
2018-08-09T03:45:27.383Z,24.81
2018-08-09T03:46:27.364Z,24.81
2018-08-09T03:47:27.414Z,24.78
2018-08-09T03:48:27.740Z,24.8
2018-08-09T03:49:27.558Z,24.8
2018-08-09T03:50:27.498Z,24.8
2018-08-09T03:51:27.592Z,24.8
2018-08-09T03:52:27.564Z,24.78
2018-08-09T03:53:27.553Z,24.78
2018-08-09T03:54:27.549Z,24.81
2018-08-09T03:55:27.342Z,24.78
2018-08-09T03:56:27.589Z,24.78
2018-08-09T03:57:27.600Z,24.8
2018-08-09T03:58:27.446Z,24.8
2018-08-09T03:59:27.439Z,24.77
2018-08-09T04:00:27.582Z,24.8
2018-08-09T04:01:27.398Z,24.78
2018-08-09T04:02:27.569Z,24.78
2018-08-09T04:03:27.616Z,24.8
2018-08-09T04:04:27.250Z,24.77
2018-08-09T04:05:27.498Z,24.8
2018-08-09T04:06:27.441Z,24.8
2018-08-09T04:07:27.356Z,24.8
2018-08-09T04:08:27.371Z,24.78
2018-08-09T04:09:27.422Z,24.78
2018-08-09T04:10:27.438Z,24.78
2018-08-09T04:11:27.546Z,24.8
2018-08-09T04:12:27.394Z,24.8
2018-08-09T04:13:27.418Z,24.78
2018-08-09T04:14:27.544Z,24.8
2018-08-09T04:15:27.356Z,24.77
2018-08-09T04:16:27.436Z,24.78
2018-08-09T04:17:27.746Z,24.78
2018-08-09T04:18:27.465Z,24.77
2018-08-09T04:19:27.435Z,24.77
2018-08-09T04:20:27.480Z,24.77
2018-08-09T04:21:27.335Z,24.81
2018-08-09T04:22:27.434Z,24.8
2018-08-09T04:23:27.465Z,24.8
2018-08-09T04:24:27.478Z,24.8
2018-08-09T04:25:27.421Z,24.77
2018-08-09T04:26:28.102Z,24.78
2018-08-09T04:27:27.357Z,24.8
2018-08-09T04:28:27.577Z,24.78
2018-08-09T04:29:27.395Z,24.78
2018-08-09T04:30:27.570Z,24.77
2018-08-09T04:31:27.290Z,24.77
2018-08-09T04:32:27.506Z,24.77
2018-08-09T04:33:27.601Z,24.77
2018-08-09T04:34:27.508Z,24.78
2018-08-09T04:35:27.600Z,24.78
2018-08-09T04:36:27.552Z,24.78
2018-08-09T04:37:27.722Z,24.78
2018-08-09T04:38:27.475Z,24.78
2018-08-09T04:39:27.389Z,24.8
2018-08-09T04:40:27.398Z,24.78
2018-08-09T04:41:27.492Z,24.8
2018-08-09T04:42:27.436Z,24.77
2018-08-09T04:43:27.486Z,24.77
2018-08-09T04:44:27.699Z,24.78
2018-08-09T04:45:27.575Z,24.77
2018-08-09T04:46:27.524Z,24.76
2018-08-09T04:47:27.410Z,24.8
2018-08-09T04:48:27.625Z,24.78
2018-08-09T04:49:27.490Z,24.78
2018-08-09T04:50:27.560Z,24.8
2018-08-09T04:51:27.526Z,24.78
2018-08-09T04:52:27.460Z,24.78
2018-08-09T04:53:27.408Z,24.8
2018-08-09T04:54:27.601Z,24.78
2018-08-09T04:55:27.816Z,24.77
2018-08-09T04:56:27.433Z,24.77
2018-08-09T04:57:27.764Z,24.77
2018-08-09T04:58:28.208Z,24.78
2018-08-09T04:59:27.480Z,24.77
2018-08-09T05:00:27.398Z,24.8
2018-08-09T05:01:27.556Z,24.76
2018-08-09T05:02:27.591Z,24.8
2018-08-09T05:03:27.513Z,24.77
2018-08-09T05:04:27.597Z,24.78
2018-08-09T05:05:27.580Z,24.78
2018-08-09T05:06:27.367Z,24.77
2018-08-09T05:07:27.368Z,24.78
2018-08-09T05:08:27.517Z,24.77
2018-08-09T05:09:27.579Z,24.77
2018-08-09T05:10:27.529Z,24.77
2018-08-09T05:11:27.391Z,24.78
2018-08-09T05:12:27.480Z,24.78
2018-08-09T05:13:27.614Z,24.8
2018-08-09T05:14:27.497Z,24.78
2018-08-09T05:15:27.412Z,24.81
2018-08-09T05:16:27.356Z,24.78
2018-08-09T05:17:27.471Z,24.76
2018-08-09T05:18:27.431Z,24.77
2018-08-09T05:19:27.580Z,24.78
2018-08-09T05:20:27.429Z,24.77
2018-08-09T05:21:27.587Z,24.78
2018-08-09T05:22:27.411Z,24.77
2018-08-09T05:23:27.584Z,24.77
2018-08-09T05:24:27.463Z,24.81
2018-08-09T05:25:27.371Z,24.76
2018-08-09T05:26:27.717Z,24.77
2018-08-09T05:27:27.425Z,24.8
2018-08-09T05:28:27.615Z,24.77
2018-08-09T05:29:27.604Z,24.78
2018-08-09T05:30:27.504Z,24.78
2018-08-09T05:31:27.371Z,24.77
2018-08-09T05:32:27.590Z,24.77
2018-08-09T05:33:27.539Z,24.76
2018-08-09T05:34:27.491Z,24.78
2018-08-09T05:35:27.739Z,24.78
2018-08-09T05:36:27.444Z,24.76
2018-08-09T05:37:27.480Z,24.76
2018-08-09T05:38:27.583Z,24.8
2018-08-09T05:39:27.563Z,24.77
2018-08-09T05:40:27.424Z,24.77
2018-08-09T05:41:27.959Z,24.8
2018-08-09T05:42:27.510Z,24.77
2018-08-09T05:43:27.547Z,24.76
2018-08-09T05:44:27.397Z,24.77
2018-08-09T05:45:27.506Z,24.77
2018-08-09T05:46:27.512Z,24.78
2018-08-09T05:47:27.416Z,24.78
2018-08-09T05:48:27.536Z,24.77
2018-08-09T05:49:27.536Z,24.77
2018-08-09T05:50:27.453Z,24.8
2018-08-09T05:51:27.437Z,24.78
2018-08-09T05:52:27.445Z,24.77
2018-08-09T05:53:27.604Z,24.78
2018-08-09T05:54:27.330Z,24.76
2018-08-09T05:55:28.290Z,24.76
2018-08-09T05:56:27.579Z,24.76
2018-08-09T05:57:28.289Z,24.76
2018-08-09T05:58:28.018Z,24.77
2018-08-09T05:59:27.524Z,24.77
2018-08-09T06:00:27.744Z,24.76
2018-08-09T06:01:27.413Z,24.78
2018-08-09T06:02:27.525Z,24.77
2018-08-09T06:03:27.389Z,24.76
2018-08-09T06:04:27.761Z,24.78
2018-08-09T06:05:27.334Z,24.77
2018-08-09T06:06:27.626Z,24.77
2018-08-09T06:07:27.621Z,24.78
2018-08-09T06:08:27.560Z,24.77
2018-08-09T06:09:27.492Z,24.76
2018-08-09T06:10:27.534Z,24.74
2018-08-09T06:11:27.461Z,24.76
2018-08-09T06:12:27.368Z,24.77
2018-08-09T06:13:28.058Z,24.76
2018-08-09T06:14:27.484Z,24.78
2018-08-09T06:15:27.516Z,24.77
2018-08-09T06:16:27.415Z,24.77
2018-08-09T06:17:27.466Z,24.76
2018-08-09T06:18:27.555Z,24.76
2018-08-09T06:19:27.475Z,24.77
2018-08-09T06:20:27.587Z,24.77
2018-08-09T06:21:27.416Z,24.77
2018-08-09T06:22:27.461Z,24.77
2018-08-09T06:23:27.560Z,24.77
2018-08-09T06:24:27.407Z,24.77
2018-08-09T06:25:27.575Z,24.78
2018-08-09T06:26:28.399Z,24.77
2018-08-09T06:27:27.561Z,24.77
2018-08-09T06:28:27.463Z,24.77
2018-08-09T06:29:27.416Z,24.77
2018-08-09T06:30:27.949Z,24.77
2018-08-09T06:31:27.345Z,24.78
2018-08-09T06:32:27.519Z,24.78
2018-08-09T06:33:28.105Z,24.74
2018-08-09T06:34:27.449Z,24.77
2018-08-09T06:35:27.444Z,24.78
2018-08-09T06:36:27.602Z,24.77
2018-08-09T06:37:27.481Z,24.77
2018-08-09T06:38:27.517Z,24.74
2018-08-09T06:39:27.380Z,24.77
2018-08-09T06:40:27.454Z,24.77
2018-08-09T06:41:27.559Z,24.76
2018-08-09T06:42:27.455Z,24.76
2018-08-09T06:43:27.486Z,24.76
2018-08-09T06:44:27.463Z,24.77
2018-08-09T06:45:27.655Z,24.78
2018-08-09T06:46:27.381Z,24.78
2018-08-09T06:47:27.856Z,24.8
2018-08-09T06:48:27.558Z,24.77
2018-08-09T06:49:27.498Z,24.77
2018-08-09T06:50:27.492Z,24.77
2018-08-09T06:51:27.812Z,24.77
2018-08-09T06:52:27.453Z,24.8
2018-08-09T06:53:27.564Z,24.78
2018-08-09T06:54:27.598Z,24.77
2018-08-09T06:55:27.938Z,24.77
2018-08-09T06:56:27.333Z,24.78
2018-08-09T06:57:28.085Z,24.77
2018-08-09T06:58:27.832Z,24.76
2018-08-09T06:59:27.482Z,24.77
2018-08-09T07:00:27.709Z,24.76
2018-08-09T07:01:27.471Z,24.77
2018-08-09T07:02:27.557Z,24.78
2018-08-09T07:03:27.554Z,24.77
2018-08-09T07:04:27.532Z,24.74
2018-08-09T07:05:27.408Z,24.76
2018-08-09T07:06:27.302Z,24.78
2018-08-09T07:07:27.523Z,24.77
2018-08-09T07:08:27.799Z,24.76
2018-08-09T07:09:27.536Z,24.76
2018-08-09T07:10:27.399Z,24.74
2018-08-09T07:11:27.435Z,24.78
2018-08-09T07:12:27.560Z,24.77
2018-08-09T07:13:27.788Z,24.78
2018-08-09T07:14:27.383Z,24.78
2018-08-09T07:15:27.329Z,24.76
2018-08-09T07:16:27.723Z,24.76
2018-08-09T07:17:27.439Z,24.76
2018-08-09T07:18:27.409Z,24.77
2018-08-09T07:19:27.581Z,24.77
2018-08-09T07:20:28.477Z,24.76
2018-08-09T07:21:27.396Z,24.76
2018-08-09T07:22:27.678Z,24.76
2018-08-09T07:23:27.488Z,24.77
2018-08-09T07:24:27.416Z,24.76
2018-08-09T07:25:27.488Z,24.77
2018-08-09T07:26:28.100Z,24.77
2018-08-09T07:27:27.628Z,24.76
2018-08-09T07:28:27.525Z,24.77
2018-08-09T07:29:27.798Z,24.77
2018-08-09T07:30:27.612Z,24.74
2018-08-09T07:31:27.772Z,24.76
2018-08-09T07:32:27.599Z,24.76
2018-08-09T07:33:27.572Z,24.74
2018-08-09T07:34:27.543Z,24.76
2018-08-09T07:35:27.491Z,24.77
2018-08-09T07:36:27.981Z,24.77
2018-08-09T07:37:27.583Z,24.77
2018-08-09T07:38:27.393Z,24.78
2018-08-09T07:39:28.262Z,24.76
2018-08-09T07:40:27.453Z,24.77
2018-08-09T07:41:27.563Z,24.77
2018-08-09T07:42:27.357Z,24.77
2018-08-09T07:43:27.554Z,24.77
2018-08-09T07:44:27.329Z,24.78
2018-08-09T07:45:27.305Z,24.78
2018-08-09T07:46:27.522Z,24.77
2018-08-09T07:47:27.324Z,24.78
2018-08-09T07:48:28.028Z,24.76
2018-08-09T07:49:27.697Z,24.78
2018-08-09T07:50:27.462Z,24.76
2018-08-09T07:51:27.505Z,24.77
2018-08-09T07:52:27.474Z,24.76
2018-08-09T07:53:27.419Z,24.76
2018-08-09T07:54:28.518Z,24.76
2018-08-09T07:55:27.316Z,24.77
2018-08-09T07:56:27.389Z,24.74
2018-08-09T07:57:27.386Z,24.77
2018-08-09T07:58:27.549Z,24.78
2018-08-09T07:59:27.528Z,24.77
2018-08-09T08:00:27.349Z,24.77
2018-08-09T08:01:27.508Z,24.77
2018-08-09T08:02:27.442Z,24.76
2018-08-09T08:03:27.468Z,24.77
2018-08-09T08:04:27.650Z,24.77
2018-08-09T08:05:27.577Z,24.78
2018-08-09T08:06:27.398Z,24.76
2018-08-09T08:07:27.425Z,24.76
2018-08-09T08:08:28.006Z,24.76
2018-08-09T08:09:27.570Z,24.77
2018-08-09T08:10:27.434Z,24.77
2018-08-09T08:11:27.613Z,24.76
2018-08-09T08:12:27.473Z,24.74
2018-08-09T08:13:27.683Z,24.77
2018-08-09T08:14:27.458Z,24.74
2018-08-09T08:15:27.321Z,24.74
2018-08-09T08:16:27.856Z,24.77
2018-08-09T08:17:27.608Z,24.8
2018-08-09T08:18:27.534Z,24.77
2018-08-09T08:19:27.903Z,24.8
2018-08-09T08:20:27.513Z,24.77
2018-08-09T08:21:27.522Z,24.78
2018-08-09T08:22:27.427Z,24.78
2018-08-09T08:23:27.472Z,24.74
2018-08-09T08:24:27.567Z,24.73
2018-08-09T08:25:27.509Z,24.74
2018-08-09T08:26:27.666Z,24.74
2018-08-09T08:27:27.439Z,24.77
2018-08-09T08:28:27.686Z,24.77
2018-08-09T08:29:27.498Z,24.76
2018-08-09T08:30:27.445Z,24.76
2018-08-09T08:31:27.510Z,24.76
2018-08-09T08:32:27.555Z,24.76
2018-08-09T08:33:27.316Z,24.78
2018-08-09T08:34:27.757Z,24.77
2018-08-09T08:35:27.758Z,24.78
2018-08-09T08:36:27.696Z,24.77
2018-08-09T08:37:27.529Z,24.78
2018-08-09T08:38:27.344Z,24.8
2018-08-09T08:39:27.540Z,24.81
2018-08-09T08:40:27.375Z,24.81
2018-08-09T08:41:28.301Z,24.83
2018-08-09T08:42:27.320Z,24.83
2018-08-09T08:43:27.583Z,24.83
2018-08-09T08:44:27.525Z,24.81
2018-08-09T08:45:27.582Z,24.77
2018-08-09T08:46:27.412Z,24.8
2018-08-09T08:47:28.197Z,24.76
2018-08-09T08:48:27.757Z,24.78
2018-08-09T08:49:27.420Z,24.77
2018-08-09T08:50:27.398Z,24.77
2018-08-09T08:51:27.424Z,24.8
2018-08-09T08:52:27.596Z,24.8
2018-08-09T08:53:27.578Z,24.78
2018-08-09T08:54:27.534Z,24.77
2018-08-09T08:55:27.450Z,24.76
2018-08-09T08:56:27.468Z,24.77
2018-08-09T08:57:27.445Z,24.76
2018-08-09T08:58:27.444Z,24.76
2018-08-09T08:59:27.372Z,24.77
2018-08-09T09:00:27.276Z,24.78
2018-08-09T09:01:27.430Z,24.76
2018-08-09T09:02:27.447Z,24.73
2018-08-09T09:03:27.442Z,24.77
2018-08-09T09:04:28.550Z,24.77
2018-08-09T09:05:27.402Z,24.76
2018-08-09T09:06:27.531Z,24.77
2018-08-09T09:07:27.573Z,24.77
2018-08-09T09:08:27.332Z,24.76
2018-08-09T09:09:27.352Z,24.77
2018-08-09T09:10:27.490Z,24.77
2018-08-09T09:11:27.265Z,24.77
2018-08-09T09:12:27.426Z,24.77
2018-08-09T09:13:27.382Z,24.78
2018-08-09T09:14:27.563Z,24.77
2018-08-09T09:15:27.344Z,24.78
2018-08-09T09:16:27.378Z,24.77
2018-08-09T09:17:27.418Z,24.76
2018-08-09T09:18:27.608Z,24.77
2018-08-09T09:19:27.353Z,24.78
2018-08-09T09:20:27.371Z,24.78
2018-08-09T09:21:27.503Z,24.8
2018-08-09T09:22:27.333Z,24.76
2018-08-09T09:23:27.335Z,24.77
2018-08-09T09:24:27.382Z,24.77
2018-08-09T09:25:27.523Z,24.8
2018-08-09T09:26:27.362Z,24.78
2018-08-09T09:27:27.464Z,24.78
2018-08-09T09:28:27.405Z,24.78
2018-08-09T09:29:27.430Z,24.78
2018-08-09T09:30:27.566Z,24.77
2018-08-09T09:31:27.336Z,24.8
2018-08-09T09:32:27.322Z,24.8
2018-08-09T09:33:27.422Z,24.78
2018-08-09T09:34:27.345Z,24.81
2018-08-09T09:35:27.463Z,24.83
2018-08-09T09:36:27.405Z,24.8
2018-08-09T09:37:27.492Z,24.78
2018-08-09T09:38:27.465Z,24.78
2018-08-09T09:39:27.479Z,24.8
2018-08-09T09:40:27.479Z,24.8
2018-08-09T09:41:28.124Z,24.8
2018-08-09T09:42:27.322Z,24.78
2018-08-09T09:43:27.487Z,24.78
2018-08-09T09:44:27.356Z,24.78
2018-08-09T09:45:27.483Z,24.8
2018-08-09T09:46:27.509Z,24.8
2018-08-09T09:47:27.482Z,24.8
2018-08-09T09:48:27.394Z,24.81
2018-08-09T09:49:27.676Z,24.8
2018-08-09T09:50:27.428Z,24.77
2018-08-09T09:51:27.309Z,24.8
2018-08-09T09:52:27.382Z,24.81
2018-08-09T09:53:27.422Z,24.8
2018-08-09T09:54:27.402Z,24.81
2018-08-09T09:55:27.493Z,24.8
2018-08-09T09:56:27.424Z,24.81
2018-08-09T09:57:27.290Z,24.78
2018-08-09T09:58:27.289Z,24.78
2018-08-09T09:59:27.497Z,24.8
2018-08-09T10:00:27.263Z,24.81
2018-08-09T10:01:27.344Z,24.81
2018-08-09T10:02:27.539Z,24.81
2018-08-09T10:03:27.485Z,24.8
2018-08-09T10:04:27.444Z,24.8
2018-08-09T10:05:27.326Z,24.81
2018-08-09T10:06:27.265Z,24.8
2018-08-09T10:07:27.764Z,24.8
2018-08-09T10:08:27.514Z,24.81
2018-08-09T10:09:27.256Z,24.81
2018-08-09T10:10:28.007Z,24.78
2018-08-09T10:11:27.558Z,24.8
2018-08-09T10:12:27.506Z,24.8
2018-08-09T10:13:27.301Z,24.8
2018-08-09T10:14:27.824Z,24.8
2018-08-09T10:15:27.327Z,24.76
2018-08-09T10:16:27.403Z,24.81
2018-08-09T10:17:27.381Z,24.78
2018-08-09T10:18:27.318Z,24.8
2018-08-09T10:19:27.363Z,24.8
2018-08-09T10:20:27.311Z,24.81
2018-08-09T10:21:27.417Z,24.8
2018-08-09T10:22:27.426Z,24.8
2018-08-09T10:23:27.279Z,24.8
2018-08-09T10:24:27.398Z,24.77
2018-08-09T10:25:27.344Z,24.81
2018-08-09T10:26:27.469Z,24.81
2018-08-09T10:27:27.366Z,24.78
2018-08-09T10:28:27.436Z,24.8
2018-08-09T10:29:27.521Z,24.8
2018-08-09T10:30:27.520Z,24.8
2018-08-09T10:31:27.382Z,24.78
2018-08-09T10:32:27.264Z,24.78
2018-08-09T10:33:27.508Z,24.78
2018-08-09T10:34:27.541Z,24.8
2018-08-09T10:35:27.688Z,24.78
2018-08-09T10:36:27.243Z,24.8
2018-08-09T10:37:27.395Z,24.78
2018-08-09T10:38:27.446Z,24.81
2018-08-09T10:39:27.495Z,24.8
2018-08-09T10:40:27.444Z,24.78
2018-08-09T10:41:27.446Z,24.8
2018-08-09T10:42:27.537Z,24.78
2018-08-09T10:43:27.618Z,24.8
2018-08-09T10:44:27.367Z,24.78
2018-08-09T10:45:27.331Z,24.81
2018-08-09T10:46:27.342Z,24.8
2018-08-09T10:47:27.363Z,24.8
2018-08-09T10:48:27.424Z,24.77
2018-08-09T10:49:27.412Z,24.8
2018-08-09T10:50:27.369Z,24.78
2018-08-09T10:51:27.646Z,24.8
2018-08-09T10:52:27.348Z,24.81
2018-08-09T10:53:27.452Z,24.78
2018-08-09T10:54:27.678Z,24.81
2018-08-09T10:55:27.520Z,24.81
2018-08-09T10:56:27.565Z,24.8
2018-08-09T10:57:27.587Z,24.8
2018-08-09T10:58:27.335Z,24.81
2018-08-09T10:59:27.935Z,24.81
2018-08-09T11:00:27.430Z,24.8
2018-08-09T11:01:27.422Z,24.8
2018-08-09T11:02:27.565Z,24.81
2018-08-09T11:03:27.253Z,24.83
2018-08-09T11:04:27.419Z,24.8
2018-08-09T11:05:27.530Z,24.77
2018-08-09T11:06:27.262Z,24.78
2018-08-09T11:07:27.519Z,24.81
2018-08-09T11:08:27.415Z,24.78
2018-08-09T11:09:27.455Z,24.83
2018-08-09T11:10:27.333Z,24.8
2018-08-09T11:11:27.460Z,24.8
2018-08-09T11:12:27.417Z,24.8
2018-08-09T11:13:27.583Z,24.78
2018-08-09T11:14:27.372Z,24.8
2018-08-09T11:15:27.382Z,24.8
2018-08-09T11:16:27.372Z,24.81
2018-08-09T11:17:27.511Z,24.81
2018-08-09T11:18:27.365Z,24.78
2018-08-09T11:19:27.567Z,24.78
2018-08-09T11:20:27.284Z,24.81
2018-08-09T11:21:27.391Z,24.83
2018-08-09T11:22:27.454Z,24.77
2018-08-09T11:23:27.449Z,24.81
2018-08-09T11:24:27.465Z,24.8
2018-08-09T11:25:27.343Z,24.78
2018-08-09T11:26:27.411Z,24.78
2018-08-09T11:27:27.580Z,24.77
2018-08-09T11:28:27.466Z,24.8
2018-08-09T11:29:27.411Z,24.8
2018-08-09T11:30:27.273Z,24.78
2018-08-09T11:31:27.437Z,24.81
2018-08-09T11:32:27.262Z,24.8
2018-08-09T11:33:27.456Z,24.78
2018-08-09T11:34:27.439Z,24.81
2018-08-09T11:35:27.537Z,24.83
2018-08-09T11:36:27.329Z,24.78
2018-08-09T11:37:27.300Z,24.81
2018-08-09T11:38:27.489Z,24.8
2018-08-09T11:39:27.288Z,24.8
2018-08-09T11:40:27.537Z,24.81
2018-08-09T11:41:27.320Z,24.78
2018-08-09T11:42:27.285Z,24.8
2018-08-09T11:43:27.414Z,24.77
2018-08-09T11:44:27.306Z,24.77
2018-08-09T11:45:27.365Z,24.8
2018-08-09T11:46:27.485Z,24.81
2018-08-09T11:47:27.595Z,24.81
2018-08-09T11:48:27.325Z,24.84
2018-08-09T11:49:27.680Z,24.84
2018-08-09T11:50:27.422Z,24.83
2018-08-09T11:51:27.415Z,24.86
2018-08-09T11:52:27.355Z,24.84
2018-08-09T11:53:27.479Z,24.84
2018-08-09T11:54:27.358Z,24.84
2018-08-09T11:55:27.375Z,24.84
2018-08-09T11:56:28.190Z,24.78
2018-08-09T11:57:27.332Z,24.77
2018-08-09T11:58:27.456Z,24.78
2018-08-09T11:59:27.439Z,24.8
2018-08-09T12:00:27.505Z,24.83
2018-08-09T12:01:27.887Z,24.8
2018-08-09T12:02:27.505Z,24.81
2018-08-09T12:03:27.529Z,24.84
2018-08-09T12:04:27.867Z,24.84
2018-08-09T12:05:27.423Z,24.83
2018-08-09T12:06:27.550Z,24.86
2018-08-09T12:07:27.454Z,24.84
2018-08-09T12:08:27.320Z,24.81
2018-08-09T12:09:27.838Z,24.81
2018-08-09T12:10:27.363Z,24.81
2018-08-09T12:11:27.254Z,24.81
2018-08-09T12:12:27.293Z,24.8
2018-08-09T12:13:27.935Z,24.83
2018-08-09T12:14:29.741Z,24.81
2018-08-09T12:15:27.302Z,24.84
2018-08-09T12:16:27.552Z,24.84
2018-08-09T12:17:27.234Z,24.83
2018-08-09T12:18:27.712Z,24.81
2018-08-09T12:19:27.484Z,24.81
2018-08-09T12:20:27.453Z,24.81
2018-08-09T12:21:27.458Z,24.83
2018-08-09T12:22:27.489Z,24.83
2018-08-09T12:23:27.418Z,24.83
2018-08-09T12:24:27.896Z,24.81
2018-08-09T12:25:27.510Z,24.81
2018-08-09T12:26:27.576Z,24.83
2018-08-09T12:27:27.487Z,24.83
2018-08-09T12:28:27.343Z,24.84
2018-08-09T12:29:27.647Z,24.83
2018-08-09T12:30:27.787Z,24.84
2018-08-09T12:31:27.505Z,24.86
2018-08-09T12:32:27.467Z,24.86
2018-08-09T12:33:27.422Z,24.84
2018-08-09T12:34:27.401Z,24.83
2018-08-09T12:35:27.303Z,24.83
2018-08-09T12:36:27.846Z,24.8
2018-08-09T12:37:27.589Z,24.81
2018-08-09T12:38:27.400Z,24.84
2018-08-09T12:39:27.500Z,24.81
2018-08-09T12:40:27.361Z,24.86
2018-08-09T12:41:27.775Z,24.83
2018-08-09T12:42:27.269Z,24.83
2018-08-09T12:43:27.333Z,24.86
2018-08-09T12:44:27.504Z,24.84
2018-08-09T12:45:28.488Z,24.83
2018-08-09T12:46:27.359Z,24.84
2018-08-09T12:47:27.473Z,24.83
2018-08-09T12:48:27.428Z,24.87
2018-08-09T12:49:27.529Z,24.87
2018-08-09T12:50:27.339Z,24.86
2018-08-09T12:51:27.326Z,24.86
2018-08-09T12:52:27.460Z,24.86
2018-08-09T12:53:27.788Z,24.8
2018-08-09T12:54:27.421Z,24.8
2018-08-09T12:55:27.443Z,24.86
2018-08-09T12:56:27.304Z,24.83